AWST,Max TemperatureF,Mean TemperatureF,Min TemperatureF,Max Dew PointF,MeanDew PointF,Min DewpointF,Max Humidity, Mean Humidity, Min Humidity, Max Sea Level PressureIn, Mean Sea Level PressureIn, Min Sea Level PressureIn, Max VisibilityMiles, Mean VisibilityMiles, Min VisibilityMiles, Max Wind SpeedMPH, Mean Wind SpeedMPH, Max Gust SpeedMPH,PrecipitationIn, CloudCover, Events, WindDirDegrees
2012-10-1,94,84,73,54,48,41,44,25,13,30.09,30.03,29.94,,,,25,15,37,0.00,,,81
2012-10-2,95,83,71,48,40,32,36,20,6,30.15,30.04,29.92,,,,16,11,,0.00,,,41
2012-10-3,96,80,65,50,39,25,49,21,4,30.04,29.95,29.84,,,,10,4,,0.00,,,25
2012-10-4,100,84,69,55,43,32,56,23,5,29.95,29.89,29.80,,,,15,8,,0.00,,,313
2012-10-5,99,88,77,48,38,28,34,16,4,29.95,29.89,29.82,,,,17,11,,0.00,,,278
2012-10-6,104,90,76,45,36,30,23,13,4,29.95,29.87,29.78,,,,15,10,,0.00,,,225
2012-10-7,104,90,77,39,34,27,24,12,4,29.89,29.82,29.73,,,,14,8,,0.00,,,198
2012-10-8,106,93,80,39,36,32,23,12,4,29.89,29.81,29.71,,,,25,15,32,0.00,,,169
2012-10-9,101,88,75,45,39,36,27,15,6,29.92,29.84,29.76,,,,23,16,,0.00,,,144
2012-10-10,94,83,72,40,34,27,29,16,5,30.04,29.95,29.84,,,,30,21,40,0.00,,,139
2012-10-11,92,78,65,28,16,5,19,9,4,30.12,30.03,29.94,,,,25,19,34,0.00,,,119
2012-10-12,96,78,59,12,8,4,14,6,4,30.12,30.03,29.92,,,,20,13,29,0.00,,,114
2012-10-13,100,80,59,21,14,7,15,7,4,30.06,29.97,29.86,,,,14,9,,0.00,,,102
2012-10-14,100,83,66,25,20,16,17,8,4,30.04,29.95,29.86,,,,13,4,20,0.00,,,31
2012-10-15,106,86,67,36,22,17,22,8,4,30.01,29.93,29.84,,,,10,4,18,0.00,,,6
2012-10-16,106,89,72,52,31,23,31,11,4,29.92,29.85,29.75,,,,12,6,,0.00,,,286
2012-10-17,107,92,76,50,39,27,39,17,4,29.89,29.81,29.71,,,,14,7,,0.00,,,306
2012-10-18,107,93,79,52,39,30,28,14,4,29.89,29.80,29.71,,,,16,10,,0.00,,,260
2012-10-19,107,93,79,48,40,34,26,15,4,29.89,29.81,29.71,,,,29,8,41,0.00,,,167
2012-10-20,106,91,76,46,38,30,32,14,4,29.89,29.80,29.72,,,,12,7,,0.00,,,156
2012-10-21,107,91,75,46,40,34,22,14,5,29.86,29.78,29.69,,,,16,7,,0.00,,,91
2012-10-22,108,92,75,63,52,37,57,26,5,29.83,29.76,29.64,,,,17,8,,0.00,,,309
2012-10-23,106,93,80,57,48,37,42,21,5,29.80,29.72,29.62,,,,21,9,31,0.04,,,7
2012-10-24,97,86,75,58,52,46,50,29,12,29.92,29.82,29.73,,,,24,13,32,0.00,,,109
2012-10-25,89,80,70,59,53,50,61,38,19,29.98,29.89,29.80,,,,18,11,,0.00,,,137
2012-10-26,96,84,71,50,48,43,46,27,12,29.98,29.89,29.78,,,,21,14,29,0.00,,,149
2012-10-27,99,85,71,46,42,39,35,20,7,29.98,29.87,29.77,,,,21,14,25,0.00,,,138
2012-10-28,103,88,72,57,47,39,53,25,7,29.95,29.85,29.72,,,,33,14,48,0.00,,,150
2012-10-29,101,84,68,63,50,36,78,31,6,29.95,29.82,29.69,,,,15,10,30,0.00,,,316
2012-10-30,105,90,76,58,52,43,50,26,7,29.83,29.77,29.68,,,,17,7,33,0.00,,,320
2012-10-31,105,92,79,61,50,41,51,22,7,29.86,29.77,29.67,,,,16,9,,0.00,,,288